Time;durP1;ratioP1;P1;durP2;ratioP2;P2;SDS_P1;SDS_P2;PMS_P1;PMS_P2;Temp;Humidity;BMP_temperature;BMP_pressure;BME280_temperature;BME280_humidity;BME280_pressure;Samples;Min_cycle;Max_cycle;Signal;HPM_P1;HPM_P2
2023/04/09 00:01:49;;;;;;;11.48;6.57;;;12.90;72.10;;;;;;5044398;28;20025;-68
2023/04/09 00:04:15;;;;;;;8.10;4.80;;;12.90;71.60;;;;;;5045516;28;20196;-69
2023/04/09 00:06:41;;;;;;;9.98;5.22;;;12.90;71.60;;;;;;5038828;28;20068;-69
2023/04/09 00:09:06;;;;;;;7.70;4.03;;;12.90;71.70;;;;;;5018072;28;20069;-68
2023/04/09 00:11:32;;;;;;;8.02;4.78;;;12.90;71.70;;;;;;5050608;28;20033;-67
2023/04/09 00:13:58;;;;;;;8.57;5.55;;;12.90;71.70;;;;;;5046628;28;20366;-68
2023/04/09 00:16:24;;;;;;;8.00;4.82;;;12.90;71.70;;;;;;5041336;28;20372;-68
2023/04/09 00:18:50;;;;;;;13.93;5.35;;;12.90;71.80;;;;;;5027342;28;20018;-68
2023/04/09 00:21:16;;;;;;;7.93;4.32;;;12.90;71.70;;;;;;5048913;28;20029;-67
2023/04/09 00:23:42;;;;;;;8.38;4.18;;;12.90;71.70;;;;;;5041697;28;20052;-68
2023/04/09 00:26:08;;;;;;;8.68;4.80;;;12.90;71.80;;;;;;5044873;28;20037;-68
2023/04/09 00:28:34;;;;;;;9.55;4.90;;;12.90;71.80;;;;;;5039148;28;20029;-68
2023/04/09 00:31:02;;;;;;;9.88;4.72;;;12.80;71.80;;;;;;5023648;28;20041;-67
2023/04/09 00:33:27;;;;;;;9.98;4.13;;;12.80;71.80;;;;;;5045651;28;20029;-68
2023/04/09 00:35:53;;;;;;;9.18;4.70;;;12.80;71.80;;;;;;5023525;28;20026;-68
2023/04/09 00:38:19;;;;;;;12.82;5.05;;;12.80;71.80;;;;;;5024116;28;20365;-68
2023/04/09 00:40:49;;;;;;;8.82;4.93;;;12.80;71.90;;;;;;5035669;28;20033;-68
2023/04/09 00:43:15;;;;;;;9.88;5.00;;;12.80;72.00;;;;;;5049741;28;20025;-68
2023/04/09 00:45:41;;;;;;;10.00;6.03;;;12.80;72.00;;;;;;5020413;28;20052;-68
2023/04/09 00:48:07;;;;;;;8.25;5.47;;;12.80;72.00;;;;;;5046555;28;20033;-67
2023/04/09 00:50:33;;;;;;;12.13;5.32;;;12.80;72.00;;;;;;5041188;28;20116;-69
2023/04/09 00:52:59;;;;;;;8.88;5.40;;;12.80;72.10;;;;;;5046214;28;20104;-68
2023/04/09 00:55:25;;;;;;;10.73;5.53;;;12.80;72.00;;;;;;5021500;28;20045;-68
2023/04/09 00:57:51;;;;;;;12.90;6.38;;;12.80;72.00;;;;;;5047443;28;20025;-68
2023/04/09 01:00:17;;;;;;;7.35;4.97;;;12.80;72.10;;;;;;5047418;28;20028;-68
2023/04/09 01:02:43;;;;;;;10.43;6.18;;;12.80;72.10;;;;;;5028948;28;20025;-67
2023/04/09 01:05:10;;;;;;;9.48;4.90;;;12.80;72.20;;;;;;5046081;28;20033;-69
2023/04/09 01:08:07;;;;;;;7.70;4.97;;;12.70;72.20;;;;;;5043617;28;20068;-69
2023/04/09 01:10:41;;;;;;;10.32;5.25;;;12.70;72.20;;;;;;5039095;28;20041;-68
2023/04/09 01:13:38;;;;;;;9.98;5.40;;;12.70;72.30;;;;;;5026265;28;20480;-68
2023/04/09 01:16:05;;;;;;;10.25;5.20;;;12.70;72.20;;;;;;5015218;28;20040;-68
2023/04/09 01:18:54;;;;;;;10.18;5.85;;;12.70;72.30;;;;;;5041006;28;20041;-68
2023/04/09 01:21:25;;;;;;;13.35;5.75;;;12.70;72.40;;;;;;5037452;28;20198;-68
2023/04/09 01:24:46;;;;;;;8.95;4.60;;;12.70;72.50;;;;;;5021330;28;20481;-68
2023/04/09 01:27:13;;;;;;;10.85;4.82;;;12.70;72.40;;;;;;5037004;28;20399;-67
2023/04/09 01:29:46;;;;;;;9.23;5.38;;;12.60;72.70;;;;;;5024151;28;20100;-68
2023/04/09 01:32:15;;;;;;;9.32;5.30;;;12.60;72.50;;;;;;5037811;28;20021;-68
2023/04/09 01:34:43;;;;;;;10.07;4.68;;;12.60;72.60;;;;;;5044653;28;20026;-68
2023/04/09 01:37:11;;;;;;;10.88;5.78;;;12.60;72.60;;;;;;5040065;28;20013;-67
2023/04/09 01:39:37;;;;;;;9.18;4.55;;;12.60;72.70;;;;;;5042140;28;20060;-68
2023/04/09 01:42:04;;;;;;;10.70;5.55;;;12.60;72.60;;;;;;5008144;28;20029;-67
2023/04/09 01:44:31;;;;;;;7.30;5.10;;;12.60;72.70;;;;;;5043482;28;20025;-68
2023/04/09 01:46:59;;;;;;;10.20;4.85;;;12.60;72.60;;;;;;5039383;28;20044;-68
2023/04/09 01:49:25;;;;;;;8.85;4.75;;;12.60;72.70;;;;;;5039599;28;20037;-68
2023/04/09 01:51:51;;;;;;;11.07;5.90;;;12.60;72.70;;;;;;5040084;28;20087;-68
2023/04/09 01:54:17;;;;;;;9.52;5.72;;;12.60;72.80;;;;;;5043015;28;20060;-68
2023/04/09 01:56:47;;;;;;;9.30;4.85;;;12.60;72.90;;;;;;5020878;28;21770;-68
2023/04/09 01:59:13;;;;;;;10.35;5.10;;;12.60;72.80;;;;;;5044815;28;20020;-68
2023/04/09 02:01:52;;;;;;;8.68;5.13;;;12.60;72.90;;;;;;5043729;28;20037;-68
2023/04/09 02:04:33;;;;;;;7.13;4.18;;;12.60;72.80;;;;;;5041654;28;20067;-69
2023/04/09 02:07:08;;;;;;;7.35;4.85;;;12.60;72.80;;;;;;5039819;28;20032;-69
2023/04/09 02:09:38;;;;;;;14.80;5.15;;;12.60;72.90;;;;;;5042673;28;20117;-68
2023/04/09 02:12:06;;;;;;;8.90;4.85;;;12.60;73.00;;;;;;5030146;28;20029;-67
2023/04/09 02:14:33;;;;;;;7.20;4.47;;;12.60;73.10;;;;;;5041899;28;20068;-68
2023/04/09 02:17:02;;;;;;;9.50;4.53;;;12.60;73.10;;;;;;5037083;28;20029;-67
2023/04/09 02:19:45;;;;;;;7.50;4.47;;;12.60;73.10;;;;;;5044416;28;20067;-67
2023/04/09 02:22:12;;;;;;;7.63;4.65;;;12.60;73.10;;;;;;5042874;28;20029;-68
2023/04/09 02:24:39;;;;;;;11.07;5.38;;;12.60;73.20;;;;;;5032812;28;21358;-69
2023/04/09 02:27:05;;;;;;;9.15;4.65;;;12.60;73.30;;;;;;5039718;28;20021;-68
2023/04/09 02:29:31;;;;;;;6.22;4.78;;;12.60;73.30;;;;;;5036130;28;20026;-68
2023/04/09 02:31:57;;;;;;;9.13;4.78;;;12.60;74.00;;;;;;5019323;28;20036;-67
2023/04/09 02:34:23;;;;;;;10.23;5.25;;;12.60;73.40;;;;;;5036792;28;20021;-69
2023/04/09 02:36:48;;;;;;;7.78;5.05;;;12.60;73.40;;;;;;5046618;28;20154;-68
2023/04/09 02:39:14;;;;;;;9.90;4.82;;;12.60;73.40;;;;;;5016918;28;20049;-69
2023/04/09 02:41:40;;;;;;;6.13;4.20;;;12.60;73.50;;;;;;5029366;28;20033;-69
2023/04/09 02:44:06;;;;;;;11.57;5.55;;;12.50;73.40;;;;;;5044650;28;20025;-69
2023/04/09 02:46:31;;;;;;;6.65;4.20;;;12.60;73.50;;;;;;5039266;28;20113;-68
2023/04/09 02:48:57;;;;;;;9.50;5.95;;;12.60;73.50;;;;;;5026380;28;20333;-68
2023/04/09 02:51:23;;;;;;;6.25;4.43;;;12.60;73.40;;;;;;5026902;28;20455;-66
2023/04/09 02:53:48;;;;;;;11.43;5.60;;;12.60;73.40;;;;;;5042247;28;20065;-65
2023/04/09 02:56:14;;;;;;;12.98;5.70;;;12.60;73.40;;;;;;5046912;28;20026;-67
2023/04/09 02:58:40;;;;;;;6.93;4.75;;;12.60;73.50;;;;;;5042661;28;20489;-67
2023/04/09 03:01:06;;;;;;;8.60;5.25;;;12.50;73.40;;;;;;5030692;28;20021;-69
2023/04/09 03:03:31;;;;;;;7.72;4.00;;;12.50;73.40;;;;;;5047287;28;20037;-68
2023/04/09 03:05:57;;;;;;;6.60;4.18;;;12.50;73.40;;;;;;5025731;28;20025;-69
2023/04/09 03:08:22;;;;;;;8.63;4.55;;;12.50;73.50;;;;;;5049147;28;20037;-68
2023/04/09 03:10:48;;;;;;;9.35;4.70;;;12.40;73.50;;;;;;5028752;28;20029;-68
2023/04/09 03:13:14;;;;;;;6.75;3.95;;;12.40;73.60;;;;;;5042492;28;20032;-68
2023/04/09 03:15:40;;;;;;;9.77;4.38;;;12.40;73.60;;;;;;5048183;28;20116;-68
2023/04/09 03:18:06;;;;;;;8.68;4.13;;;12.40;73.60;;;;;;5043266;28;20032;-67
2023/04/09 03:20:31;;;;;;;7.63;4.60;;;12.40;73.70;;;;;;5045487;28;20017;-68
2023/04/09 03:22:57;;;;;;;9.32;5.25;;;12.40;73.60;;;;;;5040255;28;20147;-68
2023/04/09 03:25:23;;;;;;;7.78;4.00;;;12.40;73.70;;;;;;5040947;28;20587;-69
2023/04/09 03:27:48;;;;;;;8.75;4.40;;;12.40;73.70;;;;;;5036293;28;20521;-68
2023/04/09 03:30:14;;;;;;;6.35;4.63;;;12.30;73.70;;;;;;5028804;28;20104;-67
2023/04/09 03:32:40;;;;;;;9.07;4.88;;;12.30;73.70;;;;;;5026919;28;20052;-68
2023/04/09 03:35:07;;;;;;;10.45;4.75;;;12.30;73.70;;;;;;5042963;28;20122;-68
2023/04/09 03:37:33;;;;;;;9.40;4.40;;;12.40;73.90;;;;;;5014079;28;20516;-68
2023/04/09 03:39:59;;;;;;;7.50;4.10;;;12.30;73.90;;;;;;5024587;28;20440;-69
2023/04/09 03:42:24;;;;;;;8.30;4.13;;;12.20;73.80;;;;;;5042137;28;20036;-69
2023/04/09 03:44:53;;;;;;;8.55;4.88;;;12.20;73.90;;;;;;5047420;28;20040;-67
2023/04/09 03:47:19;;;;;;;9.40;4.78;;;12.20;74.00;;;;;;5024440;28;20511;-68
2023/04/09 03:49:44;;;;;;;8.80;5.25;;;12.20;73.90;;;;;;5048445;28;20021;-67
2023/04/09 03:52:12;;;;;;;9.55;5.10;;;12.20;73.90;;;;;;5023252;28;20526;-69
2023/04/09 03:54:37;;;;;;;6.72;4.35;;;12.20;73.90;;;;;;5044691;28;20440;-68
2023/04/09 03:57:03;;;;;;;9.98;4.78;;;12.20;74.00;;;;;;5041719;28;20112;-68
2023/04/09 03:59:29;;;;;;;8.05;5.03;;;12.10;73.90;;;;;;5025738;28;20076;-68
2023/04/09 04:01:54;;;;;;;9.02;4.57;;;12.20;74.00;;;;;;5010769;28;20489;-69
2023/04/09 04:04:20;;;;;;;9.00;4.93;;;12.20;73.90;;;;;;5030222;28;20449;-68
2023/04/09 04:06:46;;;;;;;7.72;4.70;;;12.10;74.50;;;;;;5037716;28;20030;-69
2023/04/09 04:09:11;;;;;;;6.65;4.18;;;12.10;73.90;;;;;;5025122;28;20068;-68
2023/04/09 04:11:37;;;;;;;8.80;4.95;;;12.10;74.60;;;;;;5040649;28;20040;-68
2023/04/09 04:14:03;;;;;;;9.10;4.70;;;12.10;74.00;;;;;;5010606;28;20029;-68
2023/04/09 04:16:28;;;;;;;10.98;5.15;;;12.10;74.00;;;;;;5043981;28;20436;-68
2023/04/09 04:18:54;;;;;;;13.07;5.47;;;12.10;74.00;;;;;;5044939;28;20397;-68
2023/04/09 04:21:20;;;;;;;12.02;5.80;;;12.10;74.10;;;;;;5048215;28;20440;-68
2023/04/09 04:23:45;;;;;;;9.80;5.38;;;12.00;74.00;;;;;;5046092;28;20959;-69
2023/04/09 04:26:11;;;;;;;11.88;5.78;;;12.10;74.10;;;;;;5043416;28;20104;-68
2023/04/09 04:28:37;;;;;;;8.45;4.15;;;12.10;74.10;;;;;;5047505;28;20040;-68
2023/04/09 04:31:10;;;;;;;6.40;4.03;;;12.00;74.10;;;;;;5043132;28;20566;-69
2023/04/09 04:33:37;;;;;;;6.82;4.10;;;12.00;74.10;;;;;;5047357;28;20033;-69
2023/04/09 04:36:07;;;;;;;10.48;5.28;;;12.00;74.10;;;;;;5025389;28;20031;-67
2023/04/09 04:38:34;;;;;;;9.18;5.05;;;12.00;74.00;;;;;;5041287;28;20025;-68
2023/04/09 04:41:00;;;;;;;8.82;4.63;;;12.00;74.00;;;;;;5024560;28;20029;-69
2023/04/09 04:43:26;;;;;;;9.38;5.15;;;12.00;74.00;;;;;;5039163;28;20103;-68
2023/04/09 04:45:52;;;;;;;8.55;5.15;;;11.90;74.10;;;;;;5029783;28;20021;-67
2023/04/09 04:48:17;;;;;;;8.80;4.80;;;11.90;74.10;;;;;;5041753;28;20028;-68
2023/04/09 04:50:43;;;;;;;11.13;5.30;;;11.90;74.10;;;;;;5040143;28;20037;-68
2023/04/09 04:53:09;;;;;;;10.45;5.40;;;11.80;74.00;;;;;;5042972;28;20031;-67
2023/04/09 04:55:35;;;;;;;9.52;5.50;;;11.80;74.00;;;;;;5044043;28;20090;-68
2023/04/09 04:58:01;;;;;;;10.18;4.93;;;11.80;74.00;;;;;;5042035;28;20035;-68
2023/04/09 05:00:27;;;;;;;13.45;5.18;;;11.70;73.90;;;;;;5044688;28;20037;-68
2023/04/09 05:02:52;;;;;;;8.90;4.82;;;11.70;73.90;;;;;;5047301;28;20079;-67
2023/04/09 05:05:18;;;;;;;9.73;5.25;;;11.70;73.80;;;;;;5030842;28;20452;-69
2023/04/09 05:07:44;;;;;;;7.05;4.40;;;11.60;73.70;;;;;;5038248;28;20473;-67
2023/04/09 05:10:09;;;;;;;7.38;4.60;;;11.60;73.80;;;;;;5048789;28;20033;-67
2023/04/09 05:12:35;;;;;;;10.52;5.57;;;11.50;73.70;;;;;;5045258;28;20108;-68
2023/04/09 05:15:01;;;;;;;7.35;4.20;;;11.40;73.60;;;;;;5042550;28;20036;-68
2023/04/09 05:17:27;;;;;;;8.13;5.43;;;11.30;73.60;;;;;;5035110;28;20037;-68
2023/04/09 05:19:54;;;;;;;5.90;4.13;;;11.30;73.60;;;;;;5029083;28;20419;-69
2023/04/09 05:22:19;;;;;;;9.02;5.45;;;11.30;73.60;;;;;;5023849;28;20241;-67
2023/04/09 05:24:45;;;;;;;8.85;4.70;;;11.20;73.60;;;;;;5042026;28;20095;-68
2023/04/09 05:27:11;;;;;;;8.68;4.25;;;11.10;73.60;;;;;;5021736;28;20431;-67
2023/04/09 05:29:37;;;;;;;10.05;4.78;;;11.10;73.70;;;;;;5042526;28;20090;-69
2023/04/09 05:32:02;;;;;;;8.27;4.55;;;11.10;73.70;;;;;;5040098;28;20021;-68
2023/04/09 05:34:28;;;;;;;8.02;4.90;;;11.00;73.60;;;;;;5030212;28;20032;-68
2023/04/09 05:36:54;;;;;;;9.60;4.97;;;11.00;73.70;;;;;;5048281;28;20456;-68
2023/04/09 05:39:20;;;;;;;9.43;5.38;;;10.90;73.70;;;;;;5037892;28;20054;-68
2023/04/09 05:41:46;;;;;;;7.35;4.00;;;10.90;73.70;;;;;;5043905;28;20021;-68
2023/04/09 05:44:12;;;;;;;10.70;4.95;;;10.90;73.70;;;;;;5046088;28;20488;-68
2023/04/09 05:46:37;;;;;;;9.18;4.18;;;10.90;73.70;;;;;;5018232;28;20052;-68
2023/04/09 05:49:03;;;;;;;7.38;4.30;;;10.90;73.60;;;;;;5031045;28;20171;-68
2023/04/09 05:51:29;;;;;;;9.85;4.97;;;10.90;73.60;;;;;;5044568;28;20798;-68
2023/04/09 05:53:55;;;;;;;6.57;4.28;;;10.90;73.60;;;;;;5045824;28;20104;-68
2023/04/09 05:56:23;;;;;;;8.43;4.78;;;10.90;73.50;;;;;;5017201;28;20036;-68
2023/04/09 05:58:50;;;;;;;10.10;6.13;;;11.00;73.50;;;;;;5036123;28;20037;-68
2023/04/09 06:01:16;;;;;;;6.45;4.63;;;11.00;73.40;;;;;;5042266;28;20083;-69
2023/04/09 06:03:42;;;;;;;7.93;3.67;;;11.10;73.30;;;;;;5040432;28;20084;-67
2023/04/09 06:06:08;;;;;;;10.55;5.75;;;11.20;73.10;;;;;;5021768;28;20040;-68
2023/04/09 06:08:34;;;;;;;14.13;5.32;;;11.20;73.10;;;;;;5021544;28;20385;-68
2023/04/09 06:10:59;;;;;;;9.63;4.95;;;11.20;73.00;;;;;;5022952;28;20120;-69
2023/04/09 06:13:25;;;;;;;10.55;5.38;;;11.10;72.90;;;;;;5028565;28;20029;-67
2023/04/09 06:15:51;;;;;;;6.22;4.65;;;11.10;72.90;;;;;;5036810;28;20598;-69
2023/04/09 06:18:16;;;;;;;11.85;5.95;;;11.10;72.90;;;;;;5042039;28;20106;-67
2023/04/09 06:20:42;;;;;;;10.43;5.20;;;11.10;72.90;;;;;;5012022;28;20032;-68
2023/04/09 06:23:08;;;;;;;9.73;4.80;;;11.10;72.90;;;;;;5040118;28;20401;-69
2023/04/09 06:25:35;;;;;;;11.13;6.32;;;11.10;72.90;;;;;;5041025;28;20040;-69
2023/04/09 06:28:01;;;;;;;9.10;6.03;;;11.10;73.00;;;;;;5020345;28;20492;-69
2023/04/09 06:30:28;;;;;;;8.75;4.70;;;11.10;72.90;;;;;;5034786;28;20032;-68
2023/04/09 06:32:53;;;;;;;12.40;6.30;;;11.10;72.80;;;;;;5045093;28;20034;-69
2023/04/09 06:35:19;;;;;;;9.50;6.28;;;11.10;72.70;;;;;;5037873;28;20135;-68
2023/04/09 06:37:45;;;;;;;8.52;4.35;;;11.10;72.70;;;;;;5013536;28;20036;-68
2023/04/09 06:40:11;;;;;;;7.70;4.40;;;11.10;72.70;;;;;;5039282;28;20369;-67
2023/04/09 06:42:37;;;;;;;11.45;4.90;;;11.20;72.70;;;;;;5037865;28;20042;-67
2023/04/09 06:45:07;;;;;;;10.45;4.53;;;11.20;72.70;;;;;;5037998;28;20084;-68
2023/04/09 06:47:34;;;;;;;12.68;5.85;;;11.20;72.60;;;;;;5034604;28;20028;-68
2023/04/09 06:50:00;;;;;;;8.88;5.18;;;11.30;72.50;;;;;;5017893;28;20037;-68
2023/04/09 06:52:25;;;;;;;11.70;6.60;;;11.30;72.40;;;;;;5041122;28;20029;-67
2023/04/09 06:54:51;;;;;;;7.10;4.38;;;11.30;72.30;;;;;;5019662;28;20040;-69
2023/04/09 06:57:17;;;;;;;8.60;4.97;;;11.30;72.30;;;;;;5044109;28;20567;-68
2023/04/09 06:59:43;;;;;;;13.98;6.75;;;11.30;72.20;;;;;;5037558;28;20369;-68
2023/04/09 07:02:08;;;;;;;10.05;5.78;;;11.40;72.30;;;;;;5038205;28;20100;-68
2023/04/09 07:04:34;;;;;;;9.38;6.13;;;11.40;72.20;;;;;;5039224;28;20025;-67
2023/04/09 07:07:00;;;;;;;9.10;5.43;;;11.50;72.20;;;;;;5040229;28;20037;-68
2023/04/09 07:09:26;;;;;;;12.35;5.15;;;11.50;72.10;;;;;;5040908;28;20116;-68
2023/04/09 07:11:51;;;;;;;9.38;5.50;;;11.50;72.00;;;;;;5004212;28;20045;-69
2023/04/09 07:14:17;;;;;;;7.25;4.47;;;11.60;72.10;;;;;;5021110;28;20423;-68
2023/04/09 07:16:45;;;;;;;7.53;4.22;;;11.60;72.00;;;;;;5043130;28;20036;-68
2023/04/09 07:19:11;;;;;;;11.05;5.25;;;11.70;71.90;;;;;;5042505;28;20392;-68
2023/04/09 07:21:37;;;;;;;10.15;6.10;;;11.80;71.80;;;;;;5042536;28;20029;-68
2023/04/09 07:24:02;;;;;;;11.23;5.05;;;11.80;71.60;;;;;;5041786;28;20052;-68
2023/04/09 07:26:29;;;;;;;9.60;5.65;;;11.80;71.50;;;;;;5025289;28;20040;-68
2023/04/09 07:28:55;;;;;;;10.35;5.45;;;11.90;71.50;;;;;;5044022;28;20025;-68
2023/04/09 07:31:21;;;;;;;7.82;4.50;;;11.90;71.50;;;;;;5037628;28;20036;-68
2023/04/09 07:33:47;;;;;;;8.55;6.35;;;11.90;71.40;;;;;;5044080;28;20063;-68
2023/04/09 07:36:12;;;;;;;9.88;4.95;;;12.00;71.30;;;;;;5048029;28;20779;-68
2023/04/09 07:38:38;;;;;;;8.98;5.20;;;12.10;71.30;;;;;;5010830;28;20068;-68
2023/04/09 07:41:04;;;;;;;11.40;5.45;;;12.10;71.00;;;;;;5010490;28;20025;-68
2023/04/09 07:43:31;;;;;;;10.93;4.75;;;12.20;71.00;;;;;;5037205;28;20033;-67
2023/04/09 07:45:56;;;;;;;11.35;5.22;;;12.20;70.90;;;;;;5050427;28;20167;-68
2023/04/09 07:48:22;;;;;;;7.57;4.97;;;12.20;70.80;;;;;;5047252;28;20110;-67
2023/04/09 07:50:48;;;;;;;8.35;5.38;;;12.30;70.60;;;;;;5029456;28;20149;-67
2023/04/09 07:53:13;;;;;;;9.05;4.60;;;12.40;70.50;;;;;;5034043;28;20022;-67
2023/04/09 07:55:39;;;;;;;8.00;5.03;;;12.40;70.50;;;;;;5045604;28;20036;-65
2023/04/09 07:58:06;;;;;;;8.90;5.47;;;12.50;70.50;;;;;;5034207;28;20013;-70
2023/04/09 08:00:31;;;;;;;7.38;4.60;;;12.50;70.30;;;;;;5043968;28;20025;-64
2023/04/09 08:02:58;;;;;;;10.38;5.10;;;12.60;70.10;;;;;;5033853;28;20492;-74
2023/04/09 08:05:24;;;;;;;11.02;6.00;;;12.70;70.00;;;;;;5021804;28;20104;-68
2023/04/09 08:07:51;;;;;;;7.72;4.80;;;12.70;69.90;;;;;;5051322;28;20535;-69
2023/04/09 08:10:16;;;;;;;7.40;5.07;;;12.70;69.80;;;;;;5047939;28;20064;-68
2023/04/09 08:12:42;;;;;;;9.57;5.22;;;12.80;69.90;;;;;;5023399;28;20103;-68
2023/04/09 08:15:08;;;;;;;8.60;4.72;;;12.90;69.80;;;;;;5043017;28;20040;-67
2023/04/09 08:17:36;;;;;;;9.48;5.38;;;12.90;69.70;;;;;;5044330;28;20041;-68
2023/04/09 08:20:05;;;;;;;6.82;4.63;;;13.00;69.60;;;;;;5045951;28;20029;-69
2023/04/09 08:22:31;;;;;;;8.63;4.65;;;13.10;69.40;;;;;;5027104;28;20033;-69
2023/04/09 08:24:57;;;;;;;7.72;4.68;;;13.10;69.20;;;;;;5008150;28;20495;-68
2023/04/09 08:27:23;;;;;;;5.50;3.72;;;13.20;69.10;;;;;;5039836;28;20100;-67
2023/04/09 08:29:49;;;;;;;9.48;5.07;;;13.30;69.20;;;;;;5018686;28;20036;-69
2023/04/09 08:32:15;;;;;;;8.50;4.97;;;13.40;68.90;;;;;;5041950;28;20377;-68
2023/04/09 08:34:41;;;;;;;8.45;5.00;;;13.40;68.70;;;;;;5027858;28;20017;-66
2023/04/09 08:37:07;;;;;;;9.77;5.10;;;13.50;68.70;;;;;;5037716;28;20033;-69
2023/04/09 08:39:33;;;;;;;12.40;5.07;;;13.60;68.50;;;;;;5038929;28;20040;-70
2023/04/09 08:42:02;;;;;;;14.82;5.78;;;13.70;68.20;;;;;;5041034;28;20039;-68
2023/04/09 08:44:28;;;;;;;10.25;5.97;;;13.70;68.00;;;;;;5044174;28;20104;-68
2023/04/09 08:46:54;;;;;;;11.15;4.93;;;13.70;67.90;;;;;;5027660;28;20035;-69
2023/04/09 08:49:20;;;;;;;9.10;6.18;;;13.70;67.40;;;;;;5041810;28;20033;-68
2023/04/09 08:51:48;;;;;;;11.23;4.75;;;13.80;67.50;;;;;;5031133;28;20029;-69
2023/04/09 08:54:22;;;;;;;6.45;4.60;;;13.80;67.50;;;;;;5043673;28;20025;-67
2023/04/09 08:56:47;;;;;;;8.80;4.68;;;13.90;67.20;;;;;;5047641;28;20111;-70
2023/04/09 08:59:20;;;;;;;7.28;4.75;;;13.90;66.20;;;;;;5043514;28;20108;-67
2023/04/09 09:01:48;;;;;;;8.18;4.88;;;14.00;66.50;;;;;;5040977;28;20097;-69
2023/04/09 09:04:13;;;;;;;7.40;4.38;;;14.10;66.30;;;;;;5039943;28;20549;-69
2023/04/09 09:06:40;;;;;;;7.72;4.20;;;14.10;66.00;;;;;;5039954;28;20116;-69
2023/04/09 09:09:13;;;;;;;7.32;4.68;;;14.20;66.00;;;;;;5038768;28;20025;-69
2023/04/09 09:11:48;;;;;;;9.32;5.15;;;14.40;65.90;;;;;;5038185;28;20149;-69
2023/04/09 09:14:16;;;;;;;8.05;3.60;;;14.50;65.10;;;;;;5045843;28;20013;-67
2023/04/09 09:17:03;;;;;;;7.75;3.78;;;14.50;64.90;;;;;;5037124;28;20107;-67
2023/04/09 09:19:32;;;;;;;8.52;4.60;;;14.60;65.00;;;;;;5045020;28;20059;-67
2023/04/09 09:22:00;;;;;;;7.07;4.18;;;14.80;64.20;;;;;;5023668;28;20411;-67
2023/04/09 09:24:26;;;;;;;5.90;2.88;;;14.80;63.70;;;;;;5049074;28;20049;-67
2023/04/09 09:26:53;;;;;;;5.47;3.22;;;14.90;63.40;;;;;;5039316;28;20092;-68
2023/04/09 09:29:20;;;;;;;7.85;3.33;;;15.00;62.80;;;;;;5042923;28;20022;-69
2023/04/09 09:31:50;;;;;;;5.25;2.88;;;15.10;62.50;;;;;;5045624;28;20057;-69
2023/04/09 09:34:17;;;;;;;5.75;3.72;;;15.30;62.10;;;;;;5041787;28;20017;-68
2023/04/09 09:36:44;;;;;;;10.60;3.80;;;15.30;60.30;;;;;;5044844;28;20033;-67
2023/04/09 09:39:11;;;;;;;6.40;3.90;;;15.20;60.30;;;;;;5039704;28;20045;-68
2023/04/09 09:41:38;;;;;;;6.60;3.40;;;15.20;59.80;;;;;;5032693;28;20476;-68
2023/04/09 09:44:06;;;;;;;7.70;4.03;;;15.20;59.70;;;;;;5044494;28;20025;-69
2023/04/09 09:46:37;;;;;;;5.65;3.45;;;15.40;60.10;;;;;;5034650;28;20032;-70
2023/04/09 09:49:03;;;;;;;3.70;2.75;;;15.50;59.90;;;;;;5041002;28;20055;-68
2023/04/09 09:51:31;;;;;;;10.57;3.60;;;15.70;60.40;;;;;;5037823;28;20029;-67
2023/04/09 09:53:57;;;;;;;9.02;3.00;;;15.90;59.50;;;;;;5027571;28;20063;-67
2023/04/09 09:56:31;;;;;;;7.07;4.13;;;16.00;59.40;;;;;;5009561;28;20026;-68
2023/04/09 09:59:15;;;;;;;4.40;2.85;;;16.20;58.90;;;;;;5040929;28;20100;-69
2023/04/09 10:01:43;;;;;;;3.95;2.58;;;16.30;58.60;;;;;;5031978;28;20100;-68
2023/04/09 10:04:13;;;;;;;7.55;3.42;;;16.30;58.80;;;;;;5042081;28;20370;-69
2023/04/09 10:06:43;;;;;;;6.43;3.28;;;16.40;58.60;;;;;;5044872;28;20160;-68
2023/04/09 10:09:09;;;;;;;4.63;2.60;;;16.50;58.10;;;;;;5043811;28;20411;-68
2023/04/09 10:11:37;;;;;;;5.78;3.20;;;16.50;58.10;;;;;;5044344;28;20021;-69
2023/04/09 10:14:06;;;;;;;2.60;2.10;;;16.60;58.30;;;;;;5041151;28;20120;-68
2023/04/09 10:16:32;;;;;;;8.60;4.53;;;16.70;58.50;;;;;;5019018;28;20037;-70
2023/04/09 10:19:00;;;;;;;4.88;3.33;;;16.90;57.60;;;;;;5039162;28;20025;-69
2023/04/09 10:21:44;;;;;;;4.53;2.75;;;16.90;57.50;;;;;;5022320;28;20369;-70
2023/04/09 10:24:10;;;;;;;5.43;2.72;;;17.00;57.40;;;;;;5037198;28;20043;-69
2023/04/09 10:26:40;;;;;;;4.75;3.28;;;17.20;57.10;;;;;;5005557;28;20071;-68
2023/04/09 10:29:13;;;;;;;4.93;2.20;;;17.30;56.70;;;;;;5043891;28;20146;-67
2023/04/09 10:31:51;;;;;;;4.30;2.65;;;17.40;56.60;;;;;;5039832;28;20051;-68
2023/04/09 10:34:19;;;;;;;2.85;2.22;;;17.30;56.80;;;;;;5019303;28;20037;-69
2023/04/09 10:36:51;;;;;;;4.63;2.75;;;17.30;57.00;;;;;;5024880;28;20507;-67
2023/04/09 10:39:17;;;;;;;4.75;3.10;;;17.30;56.40;;;;;;5037792;28;20485;-69
2023/04/09 10:41:45;;;;;;;4.15;2.42;;;17.20;56.80;;;;;;5042244;28;20108;-69
2023/04/09 10:44:41;;;;;;;4.70;3.00;;;17.10;56.40;;;;;;5042746;28;20079;-69
2023/04/09 10:47:11;;;;;;;5.93;3.08;;;17.00;56.30;;;;;;5026210;28;20116;-67
2023/04/09 10:49:41;;;;;;;3.33;2.05;;;17.10;56.20;;;;;;5045936;28;20076;-70
2023/04/09 10:52:12;;;;;;;3.72;2.55;;;17.10;55.90;;;;;;5046288;28;20029;-67
2023/04/09 10:54:44;;;;;;;4.13;2.50;;;17.30;55.60;;;;;;5045196;28;20025;-66
2023/04/09 10:57:18;;;;;;;6.13;2.70;;;17.40;55.50;;;;;;5043720;28;20017;-69
2023/04/09 10:59:52;;;;;;;3.13;1.92;;;17.70;54.70;;;;;;5042531;28;20431;-68
2023/04/09 11:02:36;;;;;;;3.22;1.63;;;17.80;54.30;;;;;;5045393;28;20053;-70
2023/04/09 11:05:16;;;;;;;4.45;2.65;;;17.80;53.40;;;;;;5023191;28;20444;-69
2023/04/09 11:07:57;;;;;;;5.57;3.10;;;17.90;52.80;;;;;;5038763;28;20036;-67
2023/04/09 11:10:23;;;;;;;4.95;2.10;;;18.00;52.10;;;;;;5044153;28;20033;-67
2023/04/09 11:12:49;;;;;;;5.15;1.83;;;18.00;51.90;;;;;;5041902;28;20043;-67
2023/04/09 11:15:18;;;;;;;3.33;1.77;;;18.20;52.30;;;;;;5011532;28;20037;-68
2023/04/09 11:17:49;;;;;;;3.03;1.98;;;18.40;51.90;;;;;;5029542;28;20396;-67
2023/04/09 11:20:26;;;;;;;3.45;1.80;;;18.60;51.20;;;;;;5028474;28;20133;-69
2023/04/09 11:22:54;;;;;;;4.03;2.13;;;18.70;50.30;;;;;;5043130;28;20020;-70
2023/04/09 11:25:20;;;;;;;3.45;2.05;;;18.80;50.10;;;;;;5022580;28;20046;-69
2023/04/09 11:27:46;;;;;;;3.33;2.03;;;18.90;49.40;;;;;;5010706;28;20032;-69
2023/04/09 11:30:12;;;;;;;2.63;1.17;;;19.00;49.50;;;;;;5044275;28;20044;-70
2023/04/09 11:32:38;;;;;;;2.63;1.88;;;19.10;49.50;;;;;;5049536;28;20056;-69
2023/04/09 11:35:11;;;;;;;3.35;1.73;;;19.20;49.00;;;;;;5023773;28;20033;-69
2023/04/09 11:37:37;;;;;;;3.45;1.73;;;19.20;48.00;;;;;;5033231;28;20083;-69
2023/04/09 11:40:03;;;;;;;2.97;1.83;;;19.30;48.30;;;;;;5027906;28;20025;-67
2023/04/09 11:42:30;;;;;;;4.70;1.80;;;19.40;48.30;;;;;;5047338;28;20025;-67
2023/04/09 11:44:57;;;;;;;3.53;1.13;;;19.60;48.20;;;;;;5046291;28;20071;-68
2023/04/09 11:47:23;;;;;;;1.58;0.90;;;19.70;47.80;;;;;;5037863;28;20423;-67
2023/04/09 11:49:48;;;;;;;3.17;1.67;;;19.80;48.00;;;;;;5047112;28;20021;-67
2023/04/09 11:52:17;;;;;;;1.80;1.60;;;19.90;46.90;;;;;;5040501;28;20060;-66
2023/04/09 11:54:48;;;;;;;3.13;1.80;;;19.90;46.90;;;;;;5041617;28;20060;-67
2023/04/09 11:57:14;;;;;;;2.05;1.20;;;19.90;46.70;;;;;;5016194;28;20086;-69
2023/04/09 11:59:40;;;;;;;3.08;1.90;;;19.90;45.90;;;;;;5043587;28;20483;-69
2023/04/09 12:02:06;;;;;;;2.25;1.60;;;19.90;45.40;;;;;;5021064;28;20036;-69
2023/04/09 12:04:32;;;;;;;3.35;1.92;;;19.90;45.80;;;;;;5040300;28;20821;-68
2023/04/09 12:06:58;;;;;;;2.17;1.35;;;20.00;45.20;;;;;;5039215;28;20108;-68
2023/04/09 12:09:24;;;;;;;3.15;1.60;;;20.10;45.20;;;;;;5018552;28;20049;-68
2023/04/09 12:11:50;;;;;;;2.15;1.25;;;20.30;44.60;;;;;;5035614;28;20033;-67
2023/04/09 12:14:17;;;;;;;3.40;1.38;;;20.30;44.70;;;;;;5038548;28;20029;-66
2023/04/09 12:16:43;;;;;;;2.60;1.70;;;20.30;44.90;;;;;;5017232;28;20041;-67
2023/04/09 12:19:10;;;;;;;2.97;1.67;;;20.50;44.60;;;;;;5038790;28;20044;-68
2023/04/09 12:21:49;;;;;;;2.45;1.60;;;20.50;44.10;;;;;;5026925;28;20025;-67
2023/04/09 12:24:16;;;;;;;2.53;1.52;;;20.60;44.60;;;;;;5020560;28;20022;-67
2023/04/09 12:26:42;;;;;;;2.75;1.55;;;20.70;44.70;;;;;;5040667;28;20538;-67
2023/04/09 12:29:08;;;;;;;5.57;2.17;;;20.80;44.60;;;;;;5047421;28;20120;-67
2023/04/09 12:31:34;;;;;;;2.80;1.52;;;21.00;44.00;;;;;;5040381;28;20167;-66
2023/04/09 12:34:00;;;;;;;1.98;1.50;;;21.10;43.50;;;;;;5050047;28;20082;-67
2023/04/09 12:36:26;;;;;;;3.28;1.80;;;21.10;43.50;;;;;;5044221;28;20037;-67
2023/04/09 12:38:52;;;;;;;4.43;2.13;;;21.20;43.80;;;;;;5012342;28;20033;-67
2023/04/09 12:41:17;;;;;;;4.28;2.03;;;21.20;43.80;;;;;;5028074;28;20040;-67
2023/04/09 12:43:43;;;;;;;3.38;2.00;;;21.20;43.90;;;;;;5026651;28;20112;-66
2023/04/09 12:46:09;;;;;;;2.92;1.80;;;21.30;43.80;;;;;;5045917;28;20029;-68
2023/04/09 12:48:35;;;;;;;3.22;2.35;;;21.40;43.40;;;;;;5022241;28;20061;-67